sensor_id;sensor_type;location;lat;lon;timestamp;P1;durP1;ratioP1;P2;durP2;ratioP2
19111;SDS011;9688;51.906;8.376;2024-03-07T00:00:20;30.77;;;16.60;;
19111;SDS011;9688;51.906;8.376;2024-03-07T00:03:07;29.03;;;15.97;;
19111;SDS011;9688;51.906;8.376;2024-03-07T00:10:11;28.70;;;16.20;;
19111;SDS011;9688;51.906;8.376;2024-03-07T00:12:59;28.20;;;16.30;;
19111;SDS011;9688;51.906;8.376;2024-03-07T00:15:44;32.80;;;17.00;;
19111;SDS011;9688;51.906;8.376;2024-03-07T00:18:31;28.80;;;15.93;;
19111;SDS011;9688;51.906;8.376;2024-03-07T00:21:16;29.23;;;16.50;;
19111;SDS011;9688;51.906;8.376;2024-03-07T00:24:01;33.40;;;16.57;;
19111;SDS011;9688;51.906;8.376;2024-03-07T00:26:49;29.23;;;15.93;;
19111;SDS011;9688;51.906;8.376;2024-03-07T00:29:35;29.17;;;15.03;;
19111;SDS011;9688;51.906;8.376;2024-03-07T00:32:21;36.00;;;15.87;;
19111;SDS011;9688;51.906;8.376;2024-03-07T00:35:09;29.00;;;17.03;;
19111;SDS011;9688;51.906;8.376;2024-03-07T00:37:54;33.13;;;17.17;;
19111;SDS011;9688;51.906;8.376;2024-03-07T00:40:40;28.17;;;15.77;;
19111;SDS011;9688;51.906;8.376;2024-03-07T00:43:25;34.67;;;16.20;;
19111;SDS011;9688;51.906;8.376;2024-03-07T00:46:11;28.37;;;15.90;;
19111;SDS011;9688;51.906;8.376;2024-03-07T00:48:56;34.73;;;16.53;;
19111;SDS011;9688;51.906;8.376;2024-03-07T00:51:42;30.67;;;16.37;;
19111;SDS011;9688;51.906;8.376;2024-03-07T00:54:28;33.73;;;16.87;;
19111;SDS011;9688;51.906;8.376;2024-03-07T00:57:14;30.60;;;17.03;;
19111;SDS011;9688;51.906;8.376;2024-03-07T00:59:59;29.87;;;16.13;;
19111;SDS011;9688;51.906;8.376;2024-03-07T01:02:44;31.47;;;16.70;;
19111;SDS011;9688;51.906;8.376;2024-03-07T01:05:30;28.43;;;16.60;;
19111;SDS011;9688;51.906;8.376;2024-03-07T01:08:17;29.60;;;15.53;;
19111;SDS011;9688;51.906;8.376;2024-03-07T01:11:03;26.77;;;15.50;;
19111;SDS011;9688;51.906;8.376;2024-03-07T01:13:53;30.07;;;16.53;;
19111;SDS011;9688;51.906;8.376;2024-03-07T01:16:39;35.53;;;17.03;;
19111;SDS011;9688;51.906;8.376;2024-03-07T01:19:24;30.23;;;17.20;;
19111;SDS011;9688;51.906;8.376;2024-03-07T01:22:10;34.17;;;18.13;;
19111;SDS011;9688;51.906;8.376;2024-03-07T01:24:56;30.77;;;17.27;;
19111;SDS011;9688;51.906;8.376;2024-03-07T01:27:42;30.90;;;17.10;;
19111;SDS011;9688;51.906;8.376;2024-03-07T01:30:28;33.57;;;16.53;;
19111;SDS011;9688;51.906;8.376;2024-03-07T01:33:13;32.80;;;17.80;;
19111;SDS011;9688;51.906;8.376;2024-03-07T01:35:59;35.17;;;18.33;;
19111;SDS011;9688;51.906;8.376;2024-03-07T01:38:44;29.67;;;17.27;;
19111;SDS011;9688;51.906;8.376;2024-03-07T01:41:31;34.77;;;16.50;;
19111;SDS011;9688;51.906;8.376;2024-03-07T01:44:18;28.43;;;16.00;;
19111;SDS011;9688;51.906;8.376;2024-03-07T01:47:03;30.80;;;17.07;;
19111;SDS011;9688;51.906;8.376;2024-03-07T01:49:49;30.63;;;16.03;;
19111;SDS011;9688;51.906;8.376;2024-03-07T01:52:34;29.93;;;17.30;;
19111;SDS011;9688;51.906;8.376;2024-03-07T01:55:21;29.50;;;16.17;;
19111;SDS011;9688;51.906;8.376;2024-03-07T01:58:08;30.23;;;16.50;;
19111;SDS011;9688;51.906;8.376;2024-03-07T02:00:54;30.00;;;16.83;;
19111;SDS011;9688;51.906;8.376;2024-03-07T02:03:39;28.67;;;15.87;;
19111;SDS011;9688;51.906;8.376;2024-03-07T02:06:26;29.47;;;15.93;;
19111;SDS011;9688;51.906;8.376;2024-03-07T02:09:13;25.57;;;14.60;;
19111;SDS011;9688;51.906;8.376;2024-03-07T02:11:59;25.83;;;15.73;;
19111;SDS011;9688;51.906;8.376;2024-03-07T02:14:46;28.33;;;15.57;;
19111;SDS011;9688;51.906;8.376;2024-03-07T02:17:31;27.03;;;15.00;;
19111;SDS011;9688;51.906;8.376;2024-03-07T02:20:17;27.60;;;15.53;;
19111;SDS011;9688;51.906;8.376;2024-03-07T02:23:04;26.47;;;14.90;;
19111;SDS011;9688;51.906;8.376;2024-03-07T02:25:50;26.67;;;15.60;;
19111;SDS011;9688;51.906;8.376;2024-03-07T02:29:00;27.43;;;15.43;;
19111;SDS011;9688;51.906;8.376;2024-03-07T02:31:46;28.30;;;15.33;;
19111;SDS011;9688;51.906;8.376;2024-03-07T02:34:32;31.20;;;16.03;;
19111;SDS011;9688;51.906;8.376;2024-03-07T02:37:18;28.97;;;16.07;;
19111;SDS011;9688;51.906;8.376;2024-03-07T02:40:05;29.97;;;15.47;;
19111;SDS011;9688;51.906;8.376;2024-03-07T02:42:51;25.57;;;15.33;;
19111;SDS011;9688;51.906;8.376;2024-03-07T02:45:37;30.83;;;15.83;;
19111;SDS011;9688;51.906;8.376;2024-03-07T02:48:23;28.50;;;14.83;;
19111;SDS011;9688;51.906;8.376;2024-03-07T02:51:08;29.33;;;15.67;;
19111;SDS011;9688;51.906;8.376;2024-03-07T02:53:53;28.80;;;15.97;;
19111;SDS011;9688;51.906;8.376;2024-03-07T02:56:43;33.53;;;15.97;;
19111;SDS011;9688;51.906;8.376;2024-03-07T02:59:29;29.13;;;15.70;;
19111;SDS011;9688;51.906;8.376;2024-03-07T03:02:14;31.10;;;16.13;;
19111;SDS011;9688;51.906;8.376;2024-03-07T03:04:59;29.23;;;16.13;;
19111;SDS011;9688;51.906;8.376;2024-03-07T03:07:45;30.43;;;17.03;;
19111;SDS011;9688;51.906;8.376;2024-03-07T03:10:36;27.27;;;15.80;;
19111;SDS011;9688;51.906;8.376;2024-03-07T03:13:24;26.47;;;15.80;;
19111;SDS011;9688;51.906;8.376;2024-03-07T03:16:11;28.17;;;15.73;;
19111;SDS011;9688;51.906;8.376;2024-03-07T03:18:56;28.13;;;15.77;;
19111;SDS011;9688;51.906;8.376;2024-03-07T03:21:41;26.77;;;16.03;;
19111;SDS011;9688;51.906;8.376;2024-03-07T03:24:27;27.80;;;16.30;;
19111;SDS011;9688;51.906;8.376;2024-03-07T03:27:12;25.67;;;15.63;;
19111;SDS011;9688;51.906;8.376;2024-03-07T03:29:59;27.07;;;15.47;;
19111;SDS011;9688;51.906;8.376;2024-03-07T03:32:45;29.17;;;17.53;;
19111;SDS011;9688;51.906;8.376;2024-03-07T03:35:32;29.83;;;15.73;;
19111;SDS011;9688;51.906;8.376;2024-03-07T03:38:17;30.60;;;16.97;;
19111;SDS011;9688;51.906;8.376;2024-03-07T03:41:03;28.27;;;16.07;;
19111;SDS011;9688;51.906;8.376;2024-03-07T03:43:48;27.73;;;16.60;;
19111;SDS011;9688;51.906;8.376;2024-03-07T03:46:35;28.90;;;17.00;;
19111;SDS011;9688;51.906;8.376;2024-03-07T03:49:20;30.53;;;16.57;;
19111;SDS011;9688;51.906;8.376;2024-03-07T03:52:05;29.27;;;15.73;;
19111;SDS011;9688;51.906;8.376;2024-03-07T03:54:51;27.37;;;16.53;;
19111;SDS011;9688;51.906;8.376;2024-03-07T03:57:36;31.77;;;16.40;;
19111;SDS011;9688;51.906;8.376;2024-03-07T04:00:23;32.73;;;16.63;;
19111;SDS011;9688;51.906;8.376;2024-03-07T04:03:10;29.33;;;16.97;;
19111;SDS011;9688;51.906;8.376;2024-03-07T04:05:56;29.97;;;17.27;;
19111;SDS011;9688;51.906;8.376;2024-03-07T04:08:42;29.60;;;16.90;;
19111;SDS011;9688;51.906;8.376;2024-03-07T04:11:27;29.70;;;16.27;;
19111;SDS011;9688;51.906;8.376;2024-03-07T04:14:13;30.57;;;16.77;;
19111;SDS011;9688;51.906;8.376;2024-03-07T04:16:59;26.90;;;16.47;;
19111;SDS011;9688;51.906;8.376;2024-03-07T04:19:47;29.67;;;16.17;;
19111;SDS011;9688;51.906;8.376;2024-03-07T04:22:33;30.17;;;16.63;;
19111;SDS011;9688;51.906;8.376;2024-03-07T04:25:19;31.03;;;16.03;;
19111;SDS011;9688;51.906;8.376;2024-03-07T04:28:05;29.53;;;16.83;;
19111;SDS011;9688;51.906;8.376;2024-03-07T04:34:02;29.37;;;16.20;;
19111;SDS011;9688;51.906;8.376;2024-03-07T04:36:50;28.23;;;16.70;;
19111;SDS011;9688;51.906;8.376;2024-03-07T04:39:36;28.03;;;16.17;;
19111;SDS011;9688;51.906;8.376;2024-03-07T04:42:21;27.83;;;16.60;;
19111;SDS011;9688;51.906;8.376;2024-03-07T04:45:07;28.73;;;16.97;;
19111;SDS011;9688;51.906;8.376;2024-03-07T04:47:58;27.60;;;16.60;;
19111;SDS011;9688;51.906;8.376;2024-03-07T04:50:43;27.90;;;16.37;;
19111;SDS011;9688;51.906;8.376;2024-03-07T04:53:30;29.37;;;16.87;;
19111;SDS011;9688;51.906;8.376;2024-03-07T04:56:17;29.73;;;16.23;;
19111;SDS011;9688;51.906;8.376;2024-03-07T04:59:03;35.53;;;18.17;;
19111;SDS011;9688;51.906;8.376;2024-03-07T05:01:52;32.53;;;16.70;;
19111;SDS011;9688;51.906;8.376;2024-03-07T05:04:37;31.70;;;17.10;;
19111;SDS011;9688;51.906;8.376;2024-03-07T05:07:22;30.80;;;16.93;;
19111;SDS011;9688;51.906;8.376;2024-03-07T05:10:09;30.20;;;16.70;;
19111;SDS011;9688;51.906;8.376;2024-03-07T05:12:55;33.73;;;17.97;;
19111;SDS011;9688;51.906;8.376;2024-03-07T05:15:42;30.13;;;17.27;;
19111;SDS011;9688;51.906;8.376;2024-03-07T05:18:28;33.10;;;17.73;;
19111;SDS011;9688;51.906;8.376;2024-03-07T05:21:13;32.03;;;17.07;;
19111;SDS011;9688;51.906;8.376;2024-03-07T05:24:17;29.70;;;16.57;;
19111;SDS011;9688;51.906;8.376;2024-03-07T05:27:05;31.00;;;17.17;;
19111;SDS011;9688;51.906;8.376;2024-03-07T05:29:51;30.27;;;16.57;;
19111;SDS011;9688;51.906;8.376;2024-03-07T05:32:36;28.63;;;16.37;;
19111;SDS011;9688;51.906;8.376;2024-03-07T05:35:23;32.00;;;16.77;;
19111;SDS011;9688;51.906;8.376;2024-03-07T05:38:08;32.63;;;17.03;;
19111;SDS011;9688;51.906;8.376;2024-03-07T05:40:54;33.10;;;17.20;;
19111;SDS011;9688;51.906;8.376;2024-03-07T05:43:40;30.70;;;15.87;;
19111;SDS011;9688;51.906;8.376;2024-03-07T05:46:27;32.13;;;15.73;;
19111;SDS011;9688;51.906;8.376;2024-03-07T05:49:13;31.57;;;16.30;;
19111;SDS011;9688;51.906;8.376;2024-03-07T05:51:59;28.50;;;15.70;;
19111;SDS011;9688;51.906;8.376;2024-03-07T05:54:44;30.23;;;16.07;;
19111;SDS011;9688;51.906;8.376;2024-03-07T05:57:29;29.33;;;15.63;;
19111;SDS011;9688;51.906;8.376;2024-03-07T06:00:17;29.73;;;15.77;;
19111;SDS011;9688;51.906;8.376;2024-03-07T06:03:10;29.93;;;16.27;;
19111;SDS011;9688;51.906;8.376;2024-03-07T06:05:57;29.80;;;16.17;;
19111;SDS011;9688;51.906;8.376;2024-03-07T06:08:43;32.60;;;16.73;;
19111;SDS011;9688;51.906;8.376;2024-03-07T06:11:28;27.93;;;15.53;;
19111;SDS011;9688;51.906;8.376;2024-03-07T06:14:14;28.57;;;15.57;;
19111;SDS011;9688;51.906;8.376;2024-03-07T06:17:03;27.67;;;16.17;;
19111;SDS011;9688;51.906;8.376;2024-03-07T06:19:48;25.87;;;14.93;;
19111;SDS011;9688;51.906;8.376;2024-03-07T06:22:34;29.97;;;16.40;;
19111;SDS011;9688;51.906;8.376;2024-03-07T06:25:19;29.77;;;16.27;;
19111;SDS011;9688;51.906;8.376;2024-03-07T06:28:18;29.27;;;16.73;;
19111;SDS011;9688;51.906;8.376;2024-03-07T06:31:03;26.33;;;15.07;;
19111;SDS011;9688;51.906;8.376;2024-03-07T06:33:53;34.10;;;15.60;;
19111;SDS011;9688;51.906;8.376;2024-03-07T06:36:38;26.80;;;15.77;;
19111;SDS011;9688;51.906;8.376;2024-03-07T06:39:24;37.67;;;16.10;;
19111;SDS011;9688;51.906;8.376;2024-03-07T06:42:10;29.57;;;15.90;;
19111;SDS011;9688;51.906;8.376;2024-03-07T06:44:56;32.40;;;16.47;;
19111;SDS011;9688;51.906;8.376;2024-03-07T06:47:43;30.20;;;16.40;;
19111;SDS011;9688;51.906;8.376;2024-03-07T06:50:30;26.03;;;15.33;;
19111;SDS011;9688;51.906;8.376;2024-03-07T06:53:15;31.43;;;16.20;;
19111;SDS011;9688;51.906;8.376;2024-03-07T06:59:33;32.70;;;16.33;;
19111;SDS011;9688;51.906;8.376;2024-03-07T07:02:20;32.73;;;16.63;;
19111;SDS011;9688;51.906;8.376;2024-03-07T07:05:06;29.93;;;16.67;;
19111;SDS011;9688;51.906;8.376;2024-03-07T07:07:56;34.10;;;18.20;;
19111;SDS011;9688;51.906;8.376;2024-03-07T07:10:41;38.77;;;18.23;;
19111;SDS011;9688;51.906;8.376;2024-03-07T07:13:27;35.73;;;18.50;;
19111;SDS011;9688;51.906;8.376;2024-03-07T07:16:13;37.30;;;17.23;;
19111;SDS011;9688;51.906;8.376;2024-03-07T07:18:59;35.70;;;18.43;;
19111;SDS011;9688;51.906;8.376;2024-03-07T07:21:44;34.87;;;17.53;;
19111;SDS011;9688;51.906;8.376;2024-03-07T07:24:32;32.03;;;17.40;;
19111;SDS011;9688;51.906;8.376;2024-03-07T07:27:18;29.00;;;16.63;;
19111;SDS011;9688;51.906;8.376;2024-03-07T07:30:04;30.67;;;16.80;;
19111;SDS011;9688;51.906;8.376;2024-03-07T07:32:51;33.37;;;16.70;;
19111;SDS011;9688;51.906;8.376;2024-03-07T07:35:37;30.10;;;17.00;;
19111;SDS011;9688;51.906;8.376;2024-03-07T07:38:23;35.07;;;18.03;;
19111;SDS011;9688;51.906;8.376;2024-03-07T07:41:10;28.83;;;16.00;;
19111;SDS011;9688;51.906;8.376;2024-03-07T07:43:55;29.13;;;16.03;;
19111;SDS011;9688;51.906;8.376;2024-03-07T07:46:41;33.90;;;15.87;;
19111;SDS011;9688;51.906;8.376;2024-03-07T07:49:27;27.17;;;15.27;;
19111;SDS011;9688;51.906;8.376;2024-03-07T07:52:13;31.00;;;15.57;;
19111;SDS011;9688;51.906;8.376;2024-03-07T07:55:00;25.90;;;15.80;;
19111;SDS011;9688;51.906;8.376;2024-03-07T07:57:47;29.60;;;16.00;;
19111;SDS011;9688;51.906;8.376;2024-03-07T08:00:33;32.97;;;17.60;;
19111;SDS011;9688;51.906;8.376;2024-03-07T08:03:20;36.47;;;17.53;;
19111;SDS011;9688;51.906;8.376;2024-03-07T08:06:06;32.43;;;17.17;;
19111;SDS011;9688;51.906;8.376;2024-03-07T08:08:51;35.90;;;18.03;;
19111;SDS011;9688;51.906;8.376;2024-03-07T08:11:37;31.03;;;17.33;;
19111;SDS011;9688;51.906;8.376;2024-03-07T08:14:26;30.83;;;18.00;;
19111;SDS011;9688;51.906;8.376;2024-03-07T08:17:13;31.97;;;17.73;;
19111;SDS011;9688;51.906;8.376;2024-03-07T08:19:59;36.27;;;18.43;;
19111;SDS011;9688;51.906;8.376;2024-03-07T08:22:44;33.23;;;17.87;;
19111;SDS011;9688;51.906;8.376;2024-03-07T08:25:30;27.97;;;16.93;;
19111;SDS011;9688;51.906;8.376;2024-03-07T08:28:15;30.33;;;17.07;;
19111;SDS011;9688;51.906;8.376;2024-03-07T08:31:01;30.20;;;16.87;;
19111;SDS011;9688;51.906;8.376;2024-03-07T08:33:48;28.97;;;17.77;;
19111;SDS011;9688;51.906;8.376;2024-03-07T08:36:33;29.60;;;16.27;;
19111;SDS011;9688;51.906;8.376;2024-03-07T08:39:20;33.33;;;18.70;;
19111;SDS011;9688;51.906;8.376;2024-03-07T08:42:06;30.17;;;17.23;;
19111;SDS011;9688;51.906;8.376;2024-03-07T08:44:51;31.43;;;17.63;;
19111;SDS011;9688;51.906;8.376;2024-03-07T08:47:38;37.73;;;18.17;;
19111;SDS011;9688;51.906;8.376;2024-03-07T08:50:24;34.47;;;18.90;;
19111;SDS011;9688;51.906;8.376;2024-03-07T08:53:10;37.07;;;20.00;;
19111;SDS011;9688;51.906;8.376;2024-03-07T08:55:55;37.63;;;20.57;;
19111;SDS011;9688;51.906;8.376;2024-03-07T08:58:42;42.73;;;21.03;;
19111;SDS011;9688;51.906;8.376;2024-03-07T09:01:27;33.40;;;19.60;;
19111;SDS011;9688;51.906;8.376;2024-03-07T09:04:14;36.87;;;19.67;;
19111;SDS011;9688;51.906;8.376;2024-03-07T09:07:01;42.40;;;20.27;;
19111;SDS011;9688;51.906;8.376;2024-03-07T09:09:47;36.07;;;18.77;;
19111;SDS011;9688;51.906;8.376;2024-03-07T09:12:32;30.73;;;16.93;;
19111;SDS011;9688;51.906;8.376;2024-03-07T09:15:18;29.17;;;17.40;;
19111;SDS011;9688;51.906;8.376;2024-03-07T09:18:05;33.27;;;17.17;;
19111;SDS011;9688;51.906;8.376;2024-03-07T09:20:53;35.93;;;17.57;;
19111;SDS011;9688;51.906;8.376;2024-03-07T09:23:39;34.43;;;18.03;;
19111;SDS011;9688;51.906;8.376;2024-03-07T09:26:25;29.13;;;15.77;;
19111;SDS011;9688;51.906;8.376;2024-03-07T09:29:10;32.63;;;16.60;;
19111;SDS011;9688;51.906;8.376;2024-03-07T09:31:56;31.83;;;16.80;;
19111;SDS011;9688;51.906;8.376;2024-03-07T09:34:42;31.10;;;17.13;;
19111;SDS011;9688;51.906;8.376;2024-03-07T09:37:28;28.03;;;15.30;;
19111;SDS011;9688;51.906;8.376;2024-03-07T09:40:14;27.07;;;15.30;;
19111;SDS011;9688;51.906;8.376;2024-03-07T09:42:59;25.70;;;13.50;;
19111;SDS011;9688;51.906;8.376;2024-03-07T09:45:46;26.13;;;13.50;;
19111;SDS011;9688;51.906;8.376;2024-03-07T09:48:31;24.50;;;13.30;;
19111;SDS011;9688;51.906;8.376;2024-03-07T09:51:17;25.33;;;13.57;;
19111;SDS011;9688;51.906;8.376;2024-03-07T09:54:06;22.93;;;12.93;;
19111;SDS011;9688;51.906;8.376;2024-03-07T09:56:52;23.07;;;13.20;;
19111;SDS011;9688;51.906;8.376;2024-03-07T09:59:38;23.83;;;13.30;;
19111;SDS011;9688;51.906;8.376;2024-03-07T10:02:27;24.90;;;15.03;;
19111;SDS011;9688;51.906;8.376;2024-03-07T10:05:14;23.63;;;13.87;;
19111;SDS011;9688;51.906;8.376;2024-03-07T10:08:02;25.07;;;13.87;;
19111;SDS011;9688;51.906;8.376;2024-03-07T10:10:49;25.50;;;13.57;;
19111;SDS011;9688;51.906;8.376;2024-03-07T10:13:40;25.60;;;14.07;;
19111;SDS011;9688;51.906;8.376;2024-03-07T10:16:33;31.63;;;14.00;;
19111;SDS011;9688;51.906;8.376;2024-03-07T10:19:18;29.10;;;14.03;;
19111;SDS011;9688;51.906;8.376;2024-03-07T10:22:05;28.57;;;14.63;;
19111;SDS011;9688;51.906;8.376;2024-03-07T10:24:50;28.83;;;14.03;;
19111;SDS011;9688;51.906;8.376;2024-03-07T10:27:38;29.53;;;15.37;;
19111;SDS011;9688;51.906;8.376;2024-03-07T10:30:24;28.70;;;15.50;;
19111;SDS011;9688;51.906;8.376;2024-03-07T10:33:09;29.80;;;14.70;;
19111;SDS011;9688;51.906;8.376;2024-03-07T10:35:56;28.43;;;14.17;;
19111;SDS011;9688;51.906;8.376;2024-03-07T10:38:41;31.37;;;14.73;;
19111;SDS011;9688;51.906;8.376;2024-03-07T10:41:28;28.53;;;14.57;;
19111;SDS011;9688;51.906;8.376;2024-03-07T10:44:20;28.83;;;14.87;;
19111;SDS011;9688;51.906;8.376;2024-03-07T10:47:09;31.80;;;14.93;;
19111;SDS011;9688;51.906;8.376;2024-03-07T10:50:03;31.97;;;14.63;;
19111;SDS011;9688;51.906;8.376;2024-03-07T10:52:58;31.70;;;14.87;;
19111;SDS011;9688;51.906;8.376;2024-03-07T10:55:53;32.70;;;15.97;;
19111;SDS011;9688;51.906;8.376;2024-03-07T10:58:57;28.77;;;14.33;;
19111;SDS011;9688;51.906;8.376;2024-03-07T11:01:48;31.03;;;15.37;;
19111;SDS011;9688;51.906;8.376;2024-03-07T11:04:38;33.00;;;15.13;;
19111;SDS011;9688;51.906;8.376;2024-03-07T11:07:25;37.83;;;15.17;;
19111;SDS011;9688;51.906;8.376;2024-03-07T11:10:11;36.70;;;16.87;;
19111;SDS011;9688;51.906;8.376;2024-03-07T11:12:57;36.47;;;17.50;;
19111;SDS011;9688;51.906;8.376;2024-03-07T11:15:46;31.37;;;16.00;;
19111;SDS011;9688;51.906;8.376;2024-03-07T11:18:35;36.93;;;15.70;;
19111;SDS011;9688;51.906;8.376;2024-03-07T11:24:28;30.63;;;15.33;;
19111;SDS011;9688;51.906;8.376;2024-03-07T11:27:16;37.27;;;16.53;;
19111;SDS011;9688;51.906;8.376;2024-03-07T11:30:04;31.17;;;15.43;;
19111;SDS011;9688;51.906;8.376;2024-03-07T11:32:52;33.30;;;16.27;;
19111;SDS011;9688;51.906;8.376;2024-03-07T11:35:42;34.17;;;16.63;;
19111;SDS011;9688;51.906;8.376;2024-03-07T11:38:33;35.97;;;16.73;;
19111;SDS011;9688;51.906;8.376;2024-03-07T11:41:19;34.77;;;15.67;;
19111;SDS011;9688;51.906;8.376;2024-03-07T11:44:07;33.20;;;15.20;;
19111;SDS011;9688;51.906;8.376;2024-03-07T11:46:57;29.93;;;15.37;;
19111;SDS011;9688;51.906;8.376;2024-03-07T11:49:42;29.03;;;14.03;;
19111;SDS011;9688;51.906;8.376;2024-03-07T11:52:33;27.13;;;13.07;;
19111;SDS011;9688;51.906;8.376;2024-03-07T11:55:45;25.33;;;12.83;;
19111;SDS011;9688;51.906;8.376;2024-03-07T11:58:32;29.63;;;14.83;;
19111;SDS011;9688;51.906;8.376;2024-03-07T12:01:20;29.63;;;14.50;;
19111;SDS011;9688;51.906;8.376;2024-03-07T12:04:09;30.20;;;14.43;;
19111;SDS011;9688;51.906;8.376;2024-03-07T12:06:59;27.47;;;14.70;;
19111;SDS011;9688;51.906;8.376;2024-03-07T12:09:46;28.07;;;12.57;;
19111;SDS011;9688;51.906;8.376;2024-03-07T12:12:34;30.20;;;13.93;;
19111;SDS011;9688;51.906;8.376;2024-03-07T12:15:22;28.77;;;13.20;;
19111;SDS011;9688;51.906;8.376;2024-03-07T12:18:08;27.70;;;13.80;;
19111;SDS011;9688;51.906;8.376;2024-03-07T12:20:55;28.93;;;13.47;;
19111;SDS011;9688;51.906;8.376;2024-03-07T12:23:42;27.93;;;12.97;;
19111;SDS011;9688;51.906;8.376;2024-03-07T12:26:28;25.67;;;12.30;;
19111;SDS011;9688;51.906;8.376;2024-03-07T12:29:13;28.83;;;13.63;;
19111;SDS011;9688;51.906;8.376;2024-03-07T12:31:59;30.93;;;14.37;;
19111;SDS011;9688;51.906;8.376;2024-03-07T12:34:44;35.67;;;17.70;;
19111;SDS011;9688;51.906;8.376;2024-03-07T12:37:34;35.37;;;17.83;;
19111;SDS011;9688;51.906;8.376;2024-03-07T12:40:20;28.37;;;14.43;;
19111;SDS011;9688;51.906;8.376;2024-03-07T12:43:18;25.17;;;13.37;;
19111;SDS011;9688;51.906;8.376;2024-03-07T12:46:05;38.77;;;19.07;;
19111;SDS011;9688;51.906;8.376;2024-03-07T12:48:53;30.43;;;15.10;;
19111;SDS011;9688;51.906;8.376;2024-03-07T12:51:42;33.77;;;14.53;;
19111;SDS011;9688;51.906;8.376;2024-03-07T12:54:28;30.37;;;14.87;;
19111;SDS011;9688;51.906;8.376;2024-03-07T12:57:14;28.43;;;13.80;;
19111;SDS011;9688;51.906;8.376;2024-03-07T13:00:00;30.50;;;13.37;;
19111;SDS011;9688;51.906;8.376;2024-03-07T13:02:50;25.20;;;12.97;;
19111;SDS011;9688;51.906;8.376;2024-03-07T13:05:37;27.47;;;14.03;;
19111;SDS011;9688;51.906;8.376;2024-03-07T13:08:24;29.27;;;13.77;;
19111;SDS011;9688;51.906;8.376;2024-03-07T13:11:10;32.47;;;14.50;;
19111;SDS011;9688;51.906;8.376;2024-03-07T13:13:55;26.17;;;12.90;;
19111;SDS011;9688;51.906;8.376;2024-03-07T13:16:42;34.43;;;14.77;;
19111;SDS011;9688;51.906;8.376;2024-03-07T13:19:29;32.77;;;14.57;;
19111;SDS011;9688;51.906;8.376;2024-03-07T13:22:14;27.87;;;14.03;;
19111;SDS011;9688;51.906;8.376;2024-03-07T13:24:59;27.20;;;13.53;;
19111;SDS011;9688;51.906;8.376;2024-03-07T13:27:52;31.83;;;14.20;;
19111;SDS011;9688;51.906;8.376;2024-03-07T13:30:43;30.37;;;14.43;;
19111;SDS011;9688;51.906;8.376;2024-03-07T13:33:34;27.77;;;13.90;;
19111;SDS011;9688;51.906;8.376;2024-03-07T13:36:20;34.23;;;13.60;;
19111;SDS011;9688;51.906;8.376;2024-03-07T13:39:08;28.30;;;14.20;;
19111;SDS011;9688;51.906;8.376;2024-03-07T13:41:55;31.77;;;13.93;;
19111;SDS011;9688;51.906;8.376;2024-03-07T13:44:40;26.60;;;12.67;;
19111;SDS011;9688;51.906;8.376;2024-03-07T13:47:26;33.80;;;14.40;;
19111;SDS011;9688;51.906;8.376;2024-03-07T13:50:14;27.30;;;13.40;;
19111;SDS011;9688;51.906;8.376;2024-03-07T13:52:59;30.07;;;13.97;;
19111;SDS011;9688;51.906;8.376;2024-03-07T13:56:03;31.57;;;13.17;;
19111;SDS011;9688;51.906;8.376;2024-03-07T14:06:08;30.40;;;14.70;;
19111;SDS011;9688;51.906;8.376;2024-03-07T14:09:06;28.83;;;13.97;;
19111;SDS011;9688;51.906;8.376;2024-03-07T14:12:35;34.20;;;14.33;;
19111;SDS011;9688;51.906;8.376;2024-03-07T14:19:09;31.57;;;14.10;;
19111;SDS011;9688;51.906;8.376;2024-03-07T14:22:18;29.97;;;13.77;;
19111;SDS011;9688;51.906;8.376;2024-03-07T14:25:33;31.27;;;13.70;;
19111;SDS011;9688;51.906;8.376;2024-03-07T14:28:43;31.77;;;15.03;;
19111;SDS011;9688;51.906;8.376;2024-03-07T14:31:38;37.00;;;15.80;;
19111;SDS011;9688;51.906;8.376;2024-03-07T14:34:29;37.53;;;16.30;;
19111;SDS011;9688;51.906;8.376;2024-03-07T14:37:35;32.13;;;15.40;;
19111;SDS011;9688;51.906;8.376;2024-03-07T14:40:25;29.80;;;14.73;;
19111;SDS011;9688;51.906;8.376;2024-03-07T14:43:10;37.50;;;15.70;;
19111;SDS011;9688;51.906;8.376;2024-03-07T14:45:56;34.83;;;16.20;;
19111;SDS011;9688;51.906;8.376;2024-03-07T14:48:42;39.93;;;16.23;;
19111;SDS011;9688;51.906;8.376;2024-03-07T14:51:27;35.47;;;14.77;;
19111;SDS011;9688;51.906;8.376;2024-03-07T14:54:15;33.03;;;15.57;;
19111;SDS011;9688;51.906;8.376;2024-03-07T14:57:01;33.30;;;16.23;;
19111;SDS011;9688;51.906;8.376;2024-03-07T14:59:48;36.33;;;15.50;;
19111;SDS011;9688;51.906;8.376;2024-03-07T15:02:34;32.47;;;16.07;;
19111;SDS011;9688;51.906;8.376;2024-03-07T15:05:21;34.47;;;15.87;;
19111;SDS011;9688;51.906;8.376;2024-03-07T15:08:06;43.50;;;19.33;;
19111;SDS011;9688;51.906;8.376;2024-03-07T15:10:56;42.40;;;18.67;;
19111;SDS011;9688;51.906;8.376;2024-03-07T15:13:47;35.57;;;17.73;;
19111;SDS011;9688;51.906;8.376;2024-03-07T15:16:33;41.67;;;16.83;;
19111;SDS011;9688;51.906;8.376;2024-03-07T15:19:20;40.20;;;17.73;;
19111;SDS011;9688;51.906;8.376;2024-03-07T15:22:06;38.47;;;17.50;;
19111;SDS011;9688;51.906;8.376;2024-03-07T15:24:52;37.10;;;17.83;;
19111;SDS011;9688;51.906;8.376;2024-03-07T15:27:40;46.07;;;19.63;;
19111;SDS011;9688;51.906;8.376;2024-03-07T15:30:26;40.17;;;16.30;;
19111;SDS011;9688;51.906;8.376;2024-03-07T15:33:16;37.23;;;16.57;;
19111;SDS011;9688;51.906;8.376;2024-03-07T15:36:02;38.57;;;16.80;;
19111;SDS011;9688;51.906;8.376;2024-03-07T15:38:49;33.90;;;15.80;;
19111;SDS011;9688;51.906;8.376;2024-03-07T15:41:34;43.17;;;17.40;;
19111;SDS011;9688;51.906;8.376;2024-03-07T15:44:21;34.47;;;16.67;;
19111;SDS011;9688;51.906;8.376;2024-03-07T15:47:06;40.73;;;17.00;;
19111;SDS011;9688;51.906;8.376;2024-03-07T15:49:52;36.73;;;16.50;;
19111;SDS011;9688;51.906;8.376;2024-03-07T15:52:38;41.57;;;17.37;;
19111;SDS011;9688;51.906;8.376;2024-03-07T15:55:24;39.73;;;17.03;;
19111;SDS011;9688;51.906;8.376;2024-03-07T15:58:15;46.13;;;16.77;;
19111;SDS011;9688;51.906;8.376;2024-03-07T16:01:03;35.97;;;15.70;;
19111;SDS011;9688;51.906;8.376;2024-03-07T16:03:50;33.90;;;16.27;;
19111;SDS011;9688;51.906;8.376;2024-03-07T16:06:35;34.57;;;15.87;;
19111;SDS011;9688;51.906;8.376;2024-03-07T16:09:20;31.63;;;15.67;;
19111;SDS011;9688;51.906;8.376;2024-03-07T16:12:08;34.47;;;15.27;;
19111;SDS011;9688;51.906;8.376;2024-03-07T16:14:55;39.27;;;17.37;;
19111;SDS011;9688;51.906;8.376;2024-03-07T16:17:42;33.37;;;14.47;;
19111;SDS011;9688;51.906;8.376;2024-03-07T16:20:29;33.73;;;14.73;;
19111;SDS011;9688;51.906;8.376;2024-03-07T16:23:18;35.73;;;14.87;;
19111;SDS011;9688;51.906;8.376;2024-03-07T16:26:03;28.43;;;13.97;;
19111;SDS011;9688;51.906;8.376;2024-03-07T16:28:49;33.67;;;13.97;;
19111;SDS011;9688;51.906;8.376;2024-03-07T16:31:35;27.50;;;14.80;;
19111;SDS011;9688;51.906;8.376;2024-03-07T16:34:24;28.50;;;13.10;;
19111;SDS011;9688;51.906;8.376;2024-03-07T16:37:09;24.50;;;12.33;;
19111;SDS011;9688;51.906;8.376;2024-03-07T16:39:59;25.73;;;12.73;;
19111;SDS011;9688;51.906;8.376;2024-03-07T16:42:45;25.83;;;13.27;;
19111;SDS011;9688;51.906;8.376;2024-03-07T16:45:35;30.83;;;12.77;;
19111;SDS011;9688;51.906;8.376;2024-03-07T16:48:22;25.03;;;13.13;;
19111;SDS011;9688;51.906;8.376;2024-03-07T16:51:09;27.27;;;13.23;;
19111;SDS011;9688;51.906;8.376;2024-03-07T16:53:54;26.20;;;13.07;;
19111;SDS011;9688;51.906;8.376;2024-03-07T16:56:40;29.97;;;13.63;;